createdAt,value
2022-12-25T00:00:58.346Z,69.71
2022-12-25T00:01:58.259Z,69.42
2022-12-25T00:02:58.348Z,69.71
2022-12-25T00:03:58.374Z,69.42
2022-12-25T00:04:58.202Z,69.71
2022-12-25T00:05:58.191Z,69.52
2022-12-25T00:06:58.171Z,70.19
2022-12-25T00:07:58.163Z,69.90
2022-12-25T00:08:58.147Z,70.00
2022-12-25T00:09:58.124Z,70.00
2022-12-25T00:10:58.110Z,70.00
2022-12-25T00:11:58.100Z,70.09
2022-12-25T00:12:58.076Z,70.09
2022-12-25T00:13:58.065Z,70.19
2022-12-25T00:14:58.050Z,70.00
2022-12-25T00:15:58.082Z,70.09
2022-12-25T00:16:58.013Z,70.19
2022-12-25T00:17:58.002Z,69.81
2022-12-25T00:18:57.981Z,69.90
2022-12-25T00:19:57.979Z,69.68
2022-12-25T00:20:57.955Z,69.68
2022-12-25T00:21:57.952Z,69.90
2022-12-25T00:22:57.920Z,69.71
2022-12-25T00:23:57.922Z,70.15
2022-12-25T00:24:57.902Z,69.68
2022-12-25T00:25:57.873Z,69.77
2022-12-25T00:26:57.855Z,69.68
2022-12-25T00:27:57.839Z,69.68
2022-12-25T00:28:57.824Z,69.77
2022-12-25T00:29:57.811Z,69.87
2022-12-25T00:30:57.831Z,69.68
2022-12-25T00:31:57.848Z,69.77
2022-12-25T00:32:57.757Z,69.87
2022-12-25T00:33:57.754Z,69.87
2022-12-25T00:34:57.727Z,69.96
2022-12-25T00:35:57.726Z,70.25
2022-12-25T00:36:57.699Z,70.15
2022-12-25T00:37:57.694Z,69.68
2022-12-25T00:38:57.663Z,69.68
2022-12-25T00:39:57.654Z,69.96
2022-12-25T00:40:57.637Z,70.25
2022-12-25T00:41:57.615Z,70.06
2022-12-25T00:42:57.613Z,70.06
2022-12-25T00:43:57.588Z,70.06
2022-12-25T00:44:57.570Z,69.68
2022-12-25T00:45:57.618Z,70.06
2022-12-25T00:46:57.576Z,70.06
2022-12-25T00:47:57.535Z,69.87
2022-12-25T00:48:57.503Z,70.06
2022-12-25T00:49:57.489Z,69.96
2022-12-25T00:50:57.484Z,69.96
2022-12-25T00:51:57.463Z,69.96
2022-12-25T00:52:57.447Z,69.96
2022-12-25T00:53:57.435Z,70.15
2022-12-25T00:54:57.412Z,69.96
2022-12-25T00:55:57.401Z,70.06
2022-12-25T00:56:57.379Z,69.87
2022-12-25T00:57:57.362Z,69.96
2022-12-25T00:58:57.349Z,69.96
2022-12-25T00:59:57.332Z,70.06
2022-12-25T01:00:57.393Z,70.06
2022-12-25T01:01:57.383Z,69.96
2022-12-25T01:02:57.482Z,69.87
2022-12-25T01:03:57.267Z,69.96
2022-12-25T01:04:57.309Z,69.96
2022-12-25T01:05:57.241Z,69.87
2022-12-25T01:06:57.233Z,69.87
2022-12-25T01:07:57.230Z,69.87
2022-12-25T01:08:57.205Z,69.87
2022-12-25T01:09:57.179Z,69.77
2022-12-25T01:10:57.153Z,70.06
2022-12-25T01:11:57.153Z,69.77
2022-12-25T01:12:57.128Z,70.15
2022-12-25T01:13:57.110Z,70.25
2022-12-25T01:14:57.088Z,70.06
2022-12-25T01:15:57.105Z,70.06
2022-12-25T01:16:57.156Z,70.06
2022-12-25T01:17:57.046Z,69.77
2022-12-25T01:18:57.049Z,70.06
2022-12-25T01:19:57.013Z,70.15
2022-12-25T01:20:56.995Z,69.96
2022-12-25T01:21:56.987Z,69.96
2022-12-25T01:22:56.966Z,69.96
2022-12-25T01:23:56.950Z,70.06
2022-12-25T01:24:56.937Z,70.00
2022-12-25T01:25:56.918Z,70.06
2022-12-25T01:26:56.908Z,69.71
2022-12-25T01:27:56.882Z,70.09
2022-12-25T01:28:56.879Z,69.39
2022-12-25T01:29:56.852Z,69.42
2022-12-25T03:04:48.172Z,73.08
2022-12-25T03:05:47.041Z,73.08
2022-12-25T03:15:15.314Z,72.60
2022-12-25T03:16:15.274Z,72.60
2022-12-25T03:17:15.145Z,72.12
2022-12-25T03:18:15.225Z,71.93
2022-12-25T03:19:15.276Z,72.22
2022-12-25T03:20:15.057Z,72.12
2022-12-25T03:21:15.059Z,72.12
2022-12-25T03:22:15.037Z,71.83
2022-12-25T03:23:15.002Z,71.73
2022-12-25T03:24:14.987Z,71.55
2022-12-25T03:25:14.967Z,71.07
2022-12-25T03:26:14.950Z,70.97
2022-12-25T03:27:14.932Z,70.78
2022-12-25T03:28:14.918Z,70.81
2022-12-25T03:29:14.903Z,70.24
2022-12-25T03:30:14.886Z,70.43
2022-12-25T03:31:14.941Z,70.24
2022-12-25T03:32:14.919Z,70.34
2022-12-25T03:33:43.336Z,70.05
2022-12-25T03:34:14.817Z,69.95
2022-12-25T03:35:14.821Z,69.76
2022-12-25T03:36:14.792Z,69.95
2022-12-25T03:37:14.836Z,69.76
2022-12-25T03:38:14.751Z,69.48
2022-12-25T03:39:14.765Z,69.67
2022-12-25T03:40:14.720Z,69.76
2022-12-25T03:41:14.713Z,69.95
2022-12-25T03:42:14.764Z,69.29
2022-12-25T03:43:14.674Z,69.48
2022-12-25T03:44:14.653Z,69.19
2022-12-25T03:45:14.637Z,69.38
2022-12-25T03:46:14.643Z,69.19
2022-12-25T03:47:14.601Z,69.25
2022-12-25T03:48:14.595Z,69.25
2022-12-25T03:49:14.571Z,68.96
2022-12-25T03:50:14.549Z,69.06
2022-12-25T03:51:14.536Z,69.25
2022-12-25T03:52:14.525Z,68.77
2022-12-25T03:53:14.539Z,68.77
2022-12-25T03:54:14.484Z,68.77
2022-12-25T03:55:14.466Z,68.77
2022-12-25T03:56:14.453Z,68.87
2022-12-25T03:57:14.433Z,68.96
2022-12-25T03:58:14.416Z,69.06
2022-12-25T03:59:19.355Z,68.71
2022-12-25T04:00:14.393Z,68.96
2022-12-25T04:01:14.571Z,68.68
2022-12-25T04:02:14.510Z,68.68
2022-12-25T04:03:14.370Z,68.77
2022-12-25T04:04:14.324Z,68.58
2022-12-25T04:05:14.311Z,68.58
2022-12-25T04:06:14.294Z,68.58
2022-12-25T04:07:14.266Z,68.33
2022-12-25T04:08:14.268Z,68.33
2022-12-25T04:09:14.239Z,68.80
2022-12-25T04:10:14.280Z,68.52
2022-12-25T04:11:14.277Z,68.62
2022-12-25T04:12:14.181Z,69.00
2022-12-25T04:13:14.190Z,68.42
2022-12-25T04:14:14.148Z,68.71
2022-12-25T04:15:14.131Z,68.62
2022-12-25T04:16:14.220Z,68.71
2022-12-25T04:17:14.097Z,68.74
2022-12-25T04:18:14.085Z,68.84
2022-12-25T04:19:14.181Z,68.71
2022-12-25T04:20:14.058Z,68.74
2022-12-25T04:21:14.031Z,68.94
2022-12-25T04:22:14.025Z,69.03
2022-12-25T04:23:14.000Z,68.84
2022-12-25T04:24:13.989Z,68.84
2022-12-25T04:25:13.967Z,68.84
2022-12-25T04:26:13.951Z,68.74
2022-12-25T04:27:13.954Z,68.74
2022-12-25T04:28:13.914Z,68.74
2022-12-25T04:29:13.911Z,68.94
2022-12-25T04:30:13.887Z,68.65
2022-12-25T04:31:13.907Z,68.36
2022-12-25T04:32:13.855Z,68.36
2022-12-25T04:33:13.868Z,68.40
2022-12-25T04:34:13.826Z,68.30
2022-12-25T04:35:13.802Z,68.68
2022-12-25T04:36:13.825Z,68.87
2022-12-25T04:37:13.808Z,68.87
2022-12-25T04:38:13.759Z,68.78
2022-12-25T04:39:13.815Z,68.87
2022-12-25T04:40:13.816Z,69.17
2022-12-25T04:41:13.707Z,68.78
2022-12-25T04:42:13.754Z,68.87
2022-12-25T04:43:13.674Z,68.68
2022-12-25T04:44:13.684Z,68.49
2022-12-25T04:45:13.639Z,68.49
2022-12-25T04:46:13.768Z,68.59
2022-12-25T04:47:13.668Z,68.40
2022-12-25T04:48:13.663Z,68.59
2022-12-25T04:49:13.572Z,68.49
2022-12-25T04:50:13.564Z,68.59
2022-12-25T04:51:13.542Z,68.59
2022-12-25T04:52:13.528Z,68.59
2022-12-25T04:53:13.512Z,68.21
2022-12-25T04:54:13.560Z,68.68
2022-12-25T04:55:13.577Z,68.59
2022-12-25T04:56:13.586Z,68.97
2022-12-25T04:57:13.478Z,68.78
2022-12-25T04:58:13.428Z,68.68
2022-12-25T04:59:13.411Z,69.35
2022-12-25T05:00:13.399Z,68.97
2022-12-25T05:01:13.407Z,69.39
2022-12-25T05:02:14.031Z,69.29
2022-12-25T05:03:13.410Z,69.29
2022-12-25T05:04:13.330Z,69.10
2022-12-25T05:05:13.402Z,68.91
2022-12-25T05:06:13.301Z,68.91
2022-12-25T05:07:13.279Z,68.91
2022-12-25T05:08:13.360Z,68.72
2022-12-25T05:09:13.251Z,68.62
2022-12-25T05:10:13.250Z,68.72
2022-12-25T05:11:13.274Z,68.52
2022-12-25T05:12:13.202Z,68.81
2022-12-25T05:13:13.239Z,68.72
2022-12-25T05:14:13.167Z,68.81
2022-12-25T05:15:13.203Z,69.20
2022-12-25T05:16:13.206Z,68.91
2022-12-25T05:17:13.143Z,69.20
2022-12-25T05:18:13.101Z,69.29
2022-12-25T05:19:13.402Z,69.39
2022-12-25T05:20:13.071Z,69.20
2022-12-25T05:21:13.081Z,69.39
2022-12-25T05:22:13.045Z,69.10
2022-12-25T05:23:13.081Z,69.20
2022-12-25T05:24:13.029Z,68.91
2022-12-25T05:25:12.997Z,69.01
2022-12-25T05:26:12.976Z,69.10
2022-12-25T05:27:12.958Z,69.01
2022-12-25T05:28:12.946Z,69.10
2022-12-25T05:29:13.048Z,69.48
2022-12-25T05:30:12.912Z,69.68
2022-12-25T05:31:12.925Z,69.48
2022-12-25T05:32:12.898Z,69.48
2022-12-25T05:33:12.864Z,69.29
2022-12-25T05:34:12.850Z,69.58
2022-12-25T05:35:12.833Z,69.39
2022-12-25T05:36:12.831Z,70.06
2022-12-25T05:37:12.806Z,69.77
2022-12-25T05:38:12.795Z,69.48
2022-12-25T05:39:12.770Z,69.39
2022-12-25T05:40:12.760Z,69.48
2022-12-25T05:41:12.748Z,69.48
2022-12-25T05:42:12.724Z,69.45
2022-12-25T05:43:12.714Z,69.54
2022-12-25T05:44:12.690Z,69.39
2022-12-25T05:45:12.702Z,69.58
2022-12-25T05:46:12.758Z,69.39
2022-12-25T05:47:12.639Z,69.68
2022-12-25T05:48:12.622Z,69.77
2022-12-25T05:49:12.647Z,69.58
2022-12-25T05:50:12.591Z,69.58
2022-12-25T05:51:12.749Z,70.06
2022-12-25T05:52:12.563Z,69.87
2022-12-25T05:53:12.559Z,69.87
2022-12-25T05:54:12.531Z,69.58
2022-12-25T05:55:12.519Z,69.48
2022-12-25T05:56:12.493Z,69.29
2022-12-25T05:57:12.478Z,69.48
2022-12-25T05:58:12.472Z,69.10
2022-12-25T05:59:12.475Z,69.48
2022-12-25T06:00:12.497Z,69.10
2022-12-25T06:01:12.463Z,69.20
2022-12-25T06:02:12.476Z,69.20
2022-12-25T06:03:12.554Z,69.39
2022-12-25T06:04:13.099Z,69.29
2022-12-25T06:05:12.396Z,69.39
2022-12-25T06:06:12.351Z,69.48
2022-12-25T06:07:12.320Z,69.39
2022-12-25T06:08:12.323Z,69.39
2022-12-25T06:09:12.334Z,69.39
2022-12-25T06:10:12.331Z,69.39
2022-12-25T06:11:12.275Z,69.39
2022-12-25T06:12:12.251Z,69.48
2022-12-25T06:13:12.248Z,69.48
2022-12-25T06:14:12.206Z,69.10
2022-12-25T06:15:12.198Z,69.10
2022-12-25T06:16:12.325Z,68.91
2022-12-25T06:24:04.761Z,69.54
2022-12-25T06:25:04.569Z,70.03
2022-12-25T06:26:04.420Z,69.74
2022-12-25T06:27:04.405Z,69.64
2022-12-25T06:28:04.392Z,70.21
2022-12-25T06:29:04.381Z,69.93
2022-12-25T06:30:04.448Z,70.03
2022-12-25T06:31:04.401Z,69.54
2022-12-25T06:32:04.471Z,69.74
2022-12-25T06:33:04.262Z,69.64
2022-12-25T06:34:04.246Z,69.64
2022-12-25T06:35:04.229Z,69.48
2022-12-25T06:36:04.227Z,69.39
2022-12-25T06:37:04.200Z,69.20
2022-12-25T06:38:04.226Z,69.48
2022-12-25T06:39:04.173Z,69.10
2022-12-25T06:40:04.149Z,69.39
2022-12-25T06:41:04.135Z,69.01
2022-12-25T06:42:04.124Z,68.62
2022-12-25T06:43:04.115Z,68.72
2022-12-25T06:44:04.086Z,68.81
2022-12-25T06:45:04.075Z,68.24
2022-12-25T06:46:04.107Z,68.62
2022-12-25T06:47:04.038Z,68.43
2022-12-25T06:48:04.025Z,68.72
2022-12-25T06:49:04.012Z,68.81
2022-12-25T06:50:03.990Z,68.91
2022-12-25T06:51:03.977Z,68.91
2022-12-25T06:52:03.972Z,68.72
2022-12-25T06:53:03.947Z,68.81
2022-12-25T06:54:04.100Z,68.72
2022-12-25T06:55:03.950Z,68.95
2022-12-25T06:56:03.897Z,68.95
2022-12-25T06:57:03.890Z,68.85
2022-12-25T06:58:03.866Z,69.04
2022-12-25T06:59:03.865Z,68.46
2022-12-25T07:00:03.827Z,68.37
2022-12-25T07:01:03.899Z,68.56
2022-12-25T07:02:03.895Z,68.95
2022-12-25T07:03:03.852Z,69.04
2022-12-25T07:04:03.779Z,68.85
2022-12-25T07:05:03.777Z,68.95
2022-12-25T07:06:03.736Z,68.85
2022-12-25T07:07:08.706Z,69.04
2022-12-25T07:08:03.771Z,69.01
2022-12-25T07:09:03.684Z,69.01
2022-12-25T07:10:03.678Z,68.81
2022-12-25T07:11:03.653Z,69.01
2022-12-25T07:12:03.641Z,69.20
2022-12-25T07:13:03.617Z,68.72
2022-12-25T07:14:03.622Z,68.81
2022-12-25T07:15:03.605Z,69.10
2022-12-25T07:16:03.648Z,69.10
2022-12-25T07:17:03.575Z,68.72
2022-12-25T07:18:03.541Z,68.72
2022-12-25T07:19:03.539Z,68.72
2022-12-25T07:20:03.552Z,68.85
2022-12-25T07:21:03.492Z,68.85
2022-12-25T07:22:03.483Z,68.95
2022-12-25T07:23:03.522Z,68.75
2022-12-25T07:24:03.449Z,69.04
2022-12-25T07:25:03.425Z,68.95
2022-12-25T07:26:03.413Z,68.75
2022-12-25T07:27:03.417Z,69.04
2022-12-25T07:28:03.387Z,68.95
2022-12-25T07:29:03.370Z,68.46
2022-12-25T07:30:03.372Z,68.46
2022-12-25T07:31:03.339Z,68.46
2022-12-25T07:32:03.438Z,68.46
2022-12-25T07:33:03.309Z,68.46
2022-12-25T07:34:03.310Z,68.56
2022-12-25T07:35:03.324Z,68.75
2022-12-25T07:36:03.268Z,68.37
2022-12-25T07:37:03.257Z,68.27
2022-12-25T07:38:03.724Z,68.30
2022-12-25T07:40:39.169Z,68.40
2022-12-25T07:41:38.969Z,67.99
2022-12-25T07:43:44.683Z,68.18
2022-12-25T07:44:44.960Z,68.08
2022-12-25T07:46:50.618Z,68.27
2022-12-25T07:47:51.487Z,68.66
2022-12-25T08:09:20.099Z,68.85
2022-12-25T08:10:20.134Z,69.33
2022-12-25T08:12:24.372Z,69.04
2022-12-25T08:13:24.335Z,69.13
2022-12-25T08:14:24.387Z,69.62
2022-12-25T08:15:24.672Z,69.23
2022-12-25T08:16:25.219Z,69.23
2022-12-25T08:17:24.163Z,69.17
2022-12-25T08:18:29.404Z,68.79
2022-12-25T08:19:24.136Z,69.26
2022-12-25T08:20:24.121Z,68.98
2022-12-25T08:21:24.110Z,68.59
2022-12-25T08:22:24.099Z,68.50
2022-12-25T08:23:24.073Z,68.79
2022-12-25T08:24:24.084Z,68.88
2022-12-25T08:25:24.038Z,68.88
2022-12-25T08:26:24.024Z,68.88
2022-12-25T08:27:24.020Z,68.98
2022-12-25T08:28:23.998Z,69.17
2022-12-25T08:29:23.988Z,68.98
2022-12-25T08:30:23.974Z,68.59
2022-12-25T08:31:24.070Z,69.17
2022-12-25T08:32:23.934Z,68.59
2022-12-25T08:33:23.915Z,69.07
2022-12-25T08:34:23.900Z,68.73
2022-12-25T08:35:23.885Z,68.88
2022-12-25T08:36:23.872Z,68.82
2022-12-25T08:37:23.862Z,69.11
2022-12-25T08:38:23.856Z,68.91
2022-12-25T08:39:23.848Z,68.53
2022-12-25T08:40:23.823Z,68.63
2022-12-25T08:41:23.792Z,68.44
2022-12-25T08:42:23.792Z,68.63
2022-12-25T08:43:23.760Z,68.73
2022-12-25T08:44:23.749Z,68.63
2022-12-25T08:45:23.745Z,68.53
2022-12-25T08:46:23.794Z,68.73
2022-12-25T08:47:23.703Z,68.53
2022-12-25T08:48:23.688Z,68.73
2022-12-25T08:49:23.669Z,68.73
2022-12-25T08:50:23.784Z,68.63
2022-12-25T08:51:23.648Z,68.63
2022-12-25T08:52:23.627Z,68.73
2022-12-25T08:53:23.606Z,68.73
2022-12-25T08:54:23.593Z,68.82
2022-12-25T08:55:23.579Z,68.82
2022-12-25T08:56:23.565Z,68.63
2022-12-25T08:57:23.561Z,68.91
2022-12-25T08:58:23.529Z,68.82
2022-12-25T08:59:23.530Z,68.63
2022-12-25T09:00:23.576Z,68.73
2022-12-25T09:01:23.672Z,68.63
2022-12-25T09:02:23.713Z,68.73
2022-12-25T09:03:23.598Z,68.82
2022-12-25T09:04:23.438Z,68.53
2022-12-25T09:05:23.420Z,68.53
2022-12-25T09:06:23.411Z,68.44
2022-12-25T09:07:23.393Z,68.44
2022-12-25T09:08:23.387Z,68.44
2022-12-25T09:09:23.363Z,68.63
2022-12-25T09:10:23.343Z,68.82
2022-12-25T09:11:23.329Z,68.66
2022-12-25T09:12:23.317Z,68.66
2022-12-25T09:13:23.307Z,68.66
2022-12-25T09:14:23.283Z,68.57
2022-12-25T09:15:23.273Z,68.85
2022-12-25T09:16:23.308Z,68.66
2022-12-25T09:17:23.236Z,68.57
2022-12-25T09:18:23.231Z,68.28
2022-12-25T09:19:23.207Z,68.18
2022-12-25T09:20:23.207Z,68.08
2022-12-25T09:21:23.180Z,68.51
2022-12-25T09:22:23.165Z,68.37
2022-12-25T09:23:23.150Z,68.41
2022-12-25T09:24:23.133Z,68.51
2022-12-25T09:25:23.142Z,68.12
2022-12-25T09:26:23.105Z,68.02
2022-12-25T09:27:23.106Z,67.93
2022-12-25T09:28:23.112Z,68.02
2022-12-25T09:29:23.056Z,68.02
2022-12-25T09:30:23.051Z,68.21
2022-12-25T09:31:23.176Z,67.83
2022-12-25T09:32:23.017Z,68.02
2022-12-25T09:33:22.997Z,68.02
2022-12-25T09:34:22.991Z,67.68
2022-12-25T09:35:22.968Z,67.68
2022-12-25T09:36:22.957Z,67.38
2022-12-25T09:37:22.938Z,67.77
2022-12-25T09:38:22.928Z,67.58
2022-12-25T09:39:22.907Z,67.68
2022-12-25T09:40:22.893Z,67.68
2022-12-25T09:41:22.881Z,67.58
2022-12-25T09:42:22.897Z,67.68
2022-12-25T09:43:22.847Z,67.64
2022-12-25T09:44:22.845Z,67.64
2022-12-25T09:45:22.823Z,67.74
2022-12-25T09:46:22.886Z,67.74
2022-12-25T09:47:22.797Z,67.74
2022-12-25T09:48:22.784Z,67.74
2022-12-25T09:49:22.762Z,67.74
2022-12-25T09:50:22.745Z,67.64
2022-12-25T09:51:22.747Z,67.35
2022-12-25T09:52:22.718Z,67.74
2022-12-25T09:53:22.711Z,67.54
2022-12-25T09:54:22.694Z,67.54
2022-12-25T09:55:22.669Z,67.54
2022-12-25T09:56:22.679Z,67.45
2022-12-25T09:57:22.642Z,67.45
2022-12-25T09:58:22.626Z,67.74
2022-12-25T09:59:22.608Z,67.54
2022-12-25T10:00:22.617Z,67.64
2022-12-25T10:01:22.733Z,67.83
2022-12-25T10:02:22.743Z,67.86
2022-12-25T10:03:22.621Z,67.48
2022-12-25T10:04:22.543Z,67.77
2022-12-25T10:05:22.530Z,67.77
2022-12-25T10:06:22.534Z,67.68
2022-12-25T10:07:22.494Z,67.68
2022-12-25T10:08:22.485Z,67.77
2022-12-25T10:09:22.463Z,67.54
2022-12-25T10:10:22.479Z,67.64
2022-12-25T10:11:22.434Z,67.35
2022-12-25T10:12:22.449Z,67.77
2022-12-25T10:13:22.403Z,67.77
2022-12-25T10:14:22.388Z,67.58
2022-12-25T10:15:22.375Z,67.68
2022-12-25T10:16:22.459Z,67.48
2022-12-25T10:17:22.350Z,67.68
2022-12-25T10:18:22.350Z,67.68
2022-12-25T10:19:22.370Z,67.58
2022-12-25T10:20:22.313Z,67.77
2022-12-25T10:21:22.295Z,67.58
2022-12-25T10:22:22.273Z,67.68
2022-12-25T10:23:22.257Z,67.32
2022-12-25T10:24:22.243Z,67.90
2022-12-25T10:25:22.229Z,67.61
2022-12-25T10:26:22.218Z,67.51
2022-12-25T10:27:22.212Z,67.51
2022-12-25T10:28:22.226Z,67.26
2022-12-25T10:29:22.188Z,67.45
2022-12-25T10:30:22.152Z,67.00
2022-12-25T10:31:22.305Z,66.55
2022-12-25T10:32:22.128Z,66.55
2022-12-25T10:33:22.119Z,66.55
2022-12-25T10:34:22.097Z,66.78
2022-12-25T10:35:22.088Z,66.49
2022-12-25T10:36:22.070Z,66.59
2022-12-25T10:37:22.067Z,66.59
2022-12-25T10:38:22.048Z,66.88
2022-12-25T10:39:22.032Z,66.59
2022-12-25T10:40:22.014Z,66.69
2022-12-25T10:41:22.013Z,66.59
2022-12-25T10:42:22.000Z,66.59
2022-12-25T10:43:21.987Z,66.59
2022-12-25T10:44:21.962Z,66.59
2022-12-25T10:45:21.944Z,66.78
2022-12-25T10:46:22.026Z,66.78
2022-12-25T10:47:21.918Z,66.59
2022-12-25T10:48:21.907Z,66.59
2022-12-25T10:49:21.892Z,66.78
2022-12-25T10:50:21.903Z,66.59
2022-12-25T10:51:21.863Z,66.59
2022-12-25T10:52:21.860Z,66.59
2022-12-25T10:53:21.832Z,66.94
2022-12-25T10:54:21.825Z,66.78
2022-12-25T10:55:28.225Z,67.23
2022-12-25T10:56:21.796Z,67.13
2022-12-25T10:57:21.781Z,66.85
2022-12-25T10:58:21.771Z,66.78
2022-12-25T10:59:21.760Z,66.78
2022-12-25T11:00:21.743Z,66.88
2022-12-25T11:01:21.772Z,66.59
2022-12-25T11:02:21.876Z,66.39
2022-12-25T11:03:21.863Z,66.39
2022-12-25T11:04:21.694Z,66.78
2022-12-25T11:05:21.683Z,66.78
2022-12-25T11:06:21.663Z,66.78
2022-12-25T11:07:21.650Z,66.59
2022-12-25T11:08:21.679Z,66.49
2022-12-25T11:09:21.629Z,66.59
2022-12-25T11:10:21.607Z,66.49
2022-12-25T11:11:21.606Z,66.59
2022-12-25T11:12:21.585Z,66.59
2022-12-25T11:13:21.565Z,66.39
2022-12-25T11:14:21.562Z,66.78
2022-12-25T11:15:21.546Z,66.97
2022-12-25T11:16:21.554Z,66.78
2022-12-25T11:17:21.522Z,66.97
2022-12-25T11:18:21.526Z,66.88
2022-12-25T11:19:21.506Z,67.07
2022-12-25T11:20:21.472Z,66.88
2022-12-25T11:21:21.459Z,67.26
2022-12-25T11:22:21.446Z,67.07
2022-12-25T11:23:21.427Z,67.07
2022-12-25T11:24:21.426Z,66.85
2022-12-25T11:25:21.402Z,66.85
2022-12-25T11:26:21.387Z,66.94
2022-12-25T11:27:21.377Z,66.85
2022-12-25T11:28:21.363Z,67.03
2022-12-25T11:29:21.349Z,66.75
2022-12-25T11:30:21.357Z,67.03
2022-12-25T11:31:21.390Z,66.91
2022-12-25T11:32:21.312Z,66.91
2022-12-25T11:33:21.293Z,67.10
2022-12-25T11:34:21.285Z,67.19
2022-12-25T11:35:21.275Z,67.58
2022-12-25T11:36:21.253Z,67.58
2022-12-25T11:37:21.254Z,67.49
2022-12-25T11:38:21.227Z,67.29
2022-12-25T11:39:21.211Z,67.49
2022-12-25T11:40:21.197Z,67.39
2022-12-25T11:41:21.186Z,67.39
2022-12-25T11:42:21.165Z,67.29
2022-12-25T11:43:21.152Z,67.29
2022-12-25T11:44:21.143Z,67.29
2022-12-25T11:45:21.128Z,67.87
2022-12-25T11:46:21.163Z,67.77
2022-12-25T11:47:21.104Z,67.68
2022-12-25T11:48:21.083Z,67.49
2022-12-25T11:49:21.090Z,67.77
2022-12-25T11:50:21.059Z,67.77
2022-12-25T11:51:21.052Z,67.49
2022-12-25T11:52:21.037Z,67.58
2022-12-25T11:53:21.011Z,67.49
2022-12-25T11:54:21.001Z,67.49
2022-12-25T11:55:20.984Z,67.58
2022-12-25T11:56:20.969Z,67.49
2022-12-25T11:57:20.955Z,67.39
2022-12-25T11:58:20.948Z,68.06
2022-12-25T11:59:20.928Z,67.68
2022-12-25T12:00:20.935Z,67.58
2022-12-25T12:01:20.920Z,67.49
2022-12-25T12:02:20.967Z,67.58
2022-12-25T12:03:21.002Z,67.68
2022-12-25T12:04:25.812Z,67.42
2022-12-25T12:05:20.847Z,67.71
2022-12-25T12:06:20.830Z,67.33
2022-12-25T12:07:20.823Z,67.33
2022-12-25T12:08:20.811Z,67.52
2022-12-25T12:09:20.801Z,67.42
2022-12-25T12:10:20.780Z,67.52
2022-12-25T12:11:20.764Z,67.61
2022-12-25T12:12:20.749Z,67.33
2022-12-25T12:13:20.744Z,67.42
2022-12-25T12:14:20.734Z,67.55
2022-12-25T12:15:20.708Z,66.97
2022-12-25T12:16:20.789Z,66.97
2022-12-25T12:17:20.677Z,66.88
2022-12-25T12:18:20.663Z,66.88
2022-12-25T12:19:20.659Z,66.97
2022-12-25T12:20:20.637Z,67.00
2022-12-25T12:21:20.627Z,67.20
2022-12-25T12:22:20.623Z,66.62
2022-12-25T12:23:20.598Z,66.66
2022-12-25T12:24:20.615Z,66.75
2022-12-25T12:25:20.577Z,66.49
2022-12-25T12:26:20.565Z,66.30
2022-12-25T12:27:20.544Z,66.53
2022-12-25T12:28:20.537Z,65.98
2022-12-25T12:29:20.516Z,65.59
2022-12-25T12:30:20.505Z,66.08
2022-12-25T12:31:20.516Z,66.01
2022-12-25T12:32:20.497Z,65.75
2022-12-25T12:33:20.480Z,65.85
2022-12-25T12:34:20.452Z,65.69
2022-12-25T12:35:20.451Z,65.72
2022-12-25T12:36:29.088Z,65.24
2022-12-25T12:37:24.759Z,65.47
2022-12-25T12:38:20.405Z,65.75
2022-12-25T12:39:20.395Z,65.66
2022-12-25T12:40:20.383Z,65.37
2022-12-25T12:41:20.394Z,65.66
2022-12-25T12:42:20.359Z,65.40
2022-12-25T12:43:20.351Z,65.11
2022-12-25T12:44:20.344Z,65.01
2022-12-25T12:45:20.338Z,64.92
2022-12-25T12:46:24.520Z,65.20
2022-12-25T12:47:20.302Z,64.92
2022-12-25T12:48:20.289Z,64.82
2022-12-25T12:49:20.303Z,64.62
2022-12-25T12:50:20.272Z,64.82
2022-12-25T12:51:20.258Z,64.62
2022-12-25T12:52:20.293Z,64.62
2022-12-25T12:53:20.256Z,64.62
2022-12-25T12:54:20.230Z,64.92
2022-12-25T12:55:20.219Z,65.01
2022-12-25T12:56:20.217Z,65.01
2022-12-25T12:57:20.193Z,65.01
2022-12-25T12:58:20.180Z,65.01
2022-12-25T12:59:20.172Z,64.92
2022-12-25T13:00:20.182Z,65.11
2022-12-25T13:01:20.293Z,64.89
2022-12-25T13:02:20.303Z,64.69
2022-12-25T13:03:20.191Z,64.98
2022-12-25T13:04:20.116Z,64.69
2022-12-25T13:05:20.138Z,64.69
2022-12-25T13:06:20.089Z,64.85
2022-12-25T13:07:20.079Z,64.85
2022-12-25T13:08:20.071Z,65.24
2022-12-25T13:09:20.058Z,65.14
2022-12-25T13:10:20.059Z,65.20
2022-12-25T13:11:20.080Z,65.11
2022-12-25T13:12:20.028Z,65.27
2022-12-25T13:13:20.013Z,65.66
2022-12-25T13:14:20.004Z,65.47
2022-12-25T13:15:19.988Z,65.47
2022-12-25T13:16:20.097Z,65.56
2022-12-25T13:17:19.964Z,65.95
2022-12-25T13:18:19.952Z,65.47
2022-12-25T13:19:19.946Z,65.85
2022-12-25T13:20:19.929Z,65.47
2022-12-25T13:21:19.915Z,65.63
2022-12-25T13:22:19.905Z,65.53
2022-12-25T13:23:19.892Z,65.14
2022-12-25T13:24:19.888Z,65.24
2022-12-25T13:25:19.866Z,65.82
2022-12-25T13:26:19.858Z,65.59
2022-12-25T13:27:19.844Z,65.59
2022-12-25T13:28:19.838Z,65.88
2022-12-25T13:29:19.823Z,65.78
2022-12-25T13:30:19.809Z,65.59
2022-12-25T13:31:19.897Z,65.66
2022-12-25T13:32:19.841Z,65.85
2022-12-25T13:33:19.811Z,66.14
2022-12-25T13:34:19.776Z,66.05
2022-12-25T13:35:19.747Z,66.05
2022-12-25T13:36:19.729Z,66.01
2022-12-25T13:37:19.722Z,65.82
2022-12-25T13:38:19.715Z,65.91
2022-12-25T13:39:19.705Z,66.11
2022-12-25T13:40:19.683Z,66.40
2022-12-25T13:41:19.677Z,66.20
2022-12-25T13:54:40.786Z,66.72
2022-12-25T13:55:40.748Z,66.97
2022-12-25T13:57:58.049Z,66.97
2022-12-25T13:58:58.021Z,67.16
2022-12-25T13:59:57.983Z,67.36
2022-12-25T14:00:58.079Z,67.55
2022-12-25T14:01:58.114Z,67.46
2022-12-25T14:02:58.095Z,67.36
2022-12-25T14:03:57.922Z,67.36
2022-12-25T14:04:57.913Z,67.46
2022-12-25T14:05:57.904Z,67.16
2022-12-25T14:06:57.901Z,66.97
2022-12-25T14:07:57.888Z,67.16
2022-12-25T14:08:57.860Z,67.46
2022-12-25T14:09:57.845Z,66.88
2022-12-25T14:10:57.834Z,67.07
2022-12-25T14:11:57.818Z,66.88
2022-12-25T14:12:57.813Z,66.78
2022-12-25T14:13:57.803Z,66.97
2022-12-25T14:14:57.778Z,66.97
2022-12-25T14:15:57.768Z,67.07
2022-12-25T14:16:57.799Z,67.26
2022-12-25T14:17:57.738Z,66.82
2022-12-25T14:18:57.726Z,66.59
2022-12-25T14:20:01.004Z,66.59
2022-12-25T14:20:57.697Z,66.62
2022-12-25T14:21:57.684Z,66.62
2022-12-25T14:22:57.672Z,66.72
2022-12-25T14:23:57.688Z,66.72
2022-12-25T14:24:57.656Z,66.62
2022-12-25T14:25:57.633Z,66.91
2022-12-25T14:26:57.618Z,66.24
2022-12-25T14:27:57.618Z,66.24
2022-12-25T14:28:57.612Z,66.52
2022-12-25T14:29:57.580Z,66.43
2022-12-25T14:30:57.593Z,66.33
2022-12-25T14:31:57.556Z,66.39
2022-12-25T14:32:57.534Z,66.69
2022-12-25T14:33:57.551Z,66.88
2022-12-25T14:34:57.505Z,66.69
2022-12-25T14:35:57.496Z,66.69
2022-12-25T14:36:57.487Z,66.59
2022-12-25T14:37:57.493Z,66.78
2022-12-25T14:38:57.453Z,66.94
2022-12-25T14:39:57.443Z,67.03
2022-12-25T14:40:57.432Z,66.85
2022-12-25T14:41:57.416Z,67.03
2022-12-25T14:42:57.399Z,66.81
2022-12-25T14:43:57.440Z,66.81
2022-12-25T14:44:57.375Z,66.91
2022-12-25T14:45:57.411Z,67.29
2022-12-25T14:46:57.345Z,67.19
2022-12-25T14:47:57.332Z,67.19
2022-12-25T14:48:57.326Z,67.29
2022-12-25T14:49:57.304Z,67.74
2022-12-25T14:50:57.287Z,67.45
2022-12-25T14:51:57.302Z,68.03
2022-12-25T14:52:57.259Z,67.65
2022-12-25T14:53:57.244Z,67.35
2022-12-25T14:54:57.229Z,67.55
2022-12-25T14:55:57.222Z,67.74
2022-12-25T14:56:57.218Z,67.83
2022-12-25T14:57:57.192Z,68.03
2022-12-25T14:58:57.184Z,68.13
2022-12-25T14:59:57.163Z,67.80
2022-12-25T15:00:57.217Z,67.99
2022-12-25T15:01:57.247Z,68.19
2022-12-25T15:02:57.306Z,68.09
2022-12-25T15:03:57.202Z,68.19
2022-12-25T15:04:57.087Z,68.19
2022-12-25T15:05:57.135Z,68.09
2022-12-25T15:06:57.060Z,68.19
2022-12-25T15:07:57.047Z,67.99
2022-12-25T15:08:57.060Z,67.90
2022-12-25T15:10:28.706Z,67.90
2022-12-25T15:11:01.007Z,68.09
2022-12-25T15:11:57.004Z,67.90
2022-12-25T15:12:56.986Z,68.03
2022-12-25T15:13:56.966Z,67.99
2022-12-25T15:14:56.945Z,67.90
2022-12-25T15:15:56.975Z,67.90
2022-12-25T15:16:56.954Z,67.99
2022-12-25T15:17:56.913Z,67.90
2022-12-25T15:18:56.891Z,67.80
2022-12-25T15:19:56.876Z,67.90
2022-12-25T15:20:56.860Z,67.99